sensor_id;sensor_type;location;lat;lon;timestamp;pressure;altitude;pressure_sealevel;temperature;humidity
61488;BME280;47351;53.326;-6.298;2023-05-02T00:00:30;102026.16;;;12.16;75.87
61488;BME280;47351;53.326;-6.298;2023-05-02T00:03:23;102028.67;;;12.10;75.94
61488;BME280;47351;53.326;-6.298;2023-05-02T00:06:15;102026.16;;;12.04;76.02
61488;BME280;47351;53.326;-6.298;2023-05-02T00:09:07;102026.76;;;11.97;75.99
61488;BME280;47351;53.326;-6.298;2023-05-02T00:11:58;102028.59;;;11.91;75.96
61488;BME280;47351;53.326;-6.298;2023-05-02T00:14:52;102031.09;;;11.84;76.07
61488;BME280;47351;53.326;-6.298;2023-05-02T00:17:48;102034.88;;;11.78;76.53
61488;BME280;47351;53.326;-6.298;2023-05-02T00:20:42;102031.15;;;11.71;76.79
61488;BME280;47351;53.326;-6.298;2023-05-02T00:23:34;102030.31;;;11.67;77.14
61488;BME280;47351;53.326;-6.298;2023-05-02T00:26:25;102034.88;;;11.61;77.22
61488;BME280;47351;53.326;-6.298;2023-05-02T00:29:18;102037.80;;;11.56;77.49
61488;BME280;47351;53.326;-6.298;2023-05-02T00:32:08;102036.63;;;11.53;77.87
61488;BME280;47351;53.326;-6.298;2023-05-02T00:35:02;102038.02;;;11.52;77.99
61488;BME280;47351;53.326;-6.298;2023-05-02T00:38:05;102044.58;;;11.48;78.11
61488;BME280;47351;53.326;-6.298;2023-05-02T00:41:00;102045.45;;;11.49;78.67
61488;BME280;47351;53.326;-6.298;2023-05-02T00:44:09;102048.27;;;11.51;79.16
61488;BME280;47351;53.326;-6.298;2023-05-02T00:47:03;102049.98;;;11.52;79.18
61488;BME280;47351;53.326;-6.298;2023-05-02T00:50:02;102046.60;;;11.52;79.02
61488;BME280;47351;53.326;-6.298;2023-05-02T00:52:54;102050.27;;;11.53;79.14
61488;BME280;47351;53.326;-6.298;2023-05-02T00:55:45;102056.31;;;11.55;79.33
61488;BME280;47351;53.326;-6.298;2023-05-02T00:58:37;102054.70;;;11.59;79.45
61488;BME280;47351;53.326;-6.298;2023-05-02T01:01:32;102049.30;;;11.62;79.38
61488;BME280;47351;53.326;-6.298;2023-05-02T01:04:30;102053.39;;;11.65;79.58
61488;BME280;47351;53.326;-6.298;2023-05-02T01:07:30;102049.77;;;11.69;79.69
61488;BME280;47351;53.326;-6.298;2023-05-02T01:10:40;102040.84;;;11.71;79.71
61488;BME280;47351;53.326;-6.298;2023-05-02T01:13:38;102042.90;;;11.72;79.41
61488;BME280;47351;53.326;-6.298;2023-05-02T01:16:34;102048.55;;;11.71;79.36
61488;BME280;47351;53.326;-6.298;2023-05-02T01:19:34;102052.63;;;11.69;79.33
61488;BME280;47351;53.326;-6.298;2023-05-02T01:22:30;102050.30;;;11.65;79.41
61488;BME280;47351;53.326;-6.298;2023-05-02T01:25:36;102053.06;;;11.62;79.57
61488;BME280;47351;53.326;-6.298;2023-05-02T01:28:33;102053.48;;;11.59;79.60
61488;BME280;47351;53.326;-6.298;2023-05-02T01:31:32;102057.10;;;11.56;79.62
61488;BME280;47351;53.326;-6.298;2023-05-02T01:34:28;102058.56;;;11.54;79.65
61488;BME280;47351;53.326;-6.298;2023-05-02T01:37:31;102062.05;;;11.53;79.74
61488;BME280;47351;53.326;-6.298;2023-05-02T01:40:28;102066.40;;;11.50;79.67
61488;BME280;47351;53.326;-6.298;2023-05-02T01:43:32;102063.75;;;11.46;79.56
61488;BME280;47351;53.326;-6.298;2023-05-02T01:46:44;102061.75;;;11.42;79.94
61488;BME280;47351;53.326;-6.298;2023-05-02T01:49:41;102057.92;;;11.41;80.10
61488;BME280;47351;53.326;-6.298;2023-05-02T01:52:33;102053.06;;;11.37;80.01
61488;BME280;47351;53.326;-6.298;2023-05-02T01:55:35;102057.55;;;11.35;80.09
61488;BME280;47351;53.326;-6.298;2023-05-02T01:58:34;102060.75;;;11.35;80.39
61488;BME280;47351;53.326;-6.298;2023-05-02T02:01:36;102061.24;;;11.38;80.47
61488;BME280;47351;53.326;-6.298;2023-05-02T02:04:32;102060.80;;;11.41;80.37
61488;BME280;47351;53.326;-6.298;2023-05-02T02:07:24;102059.34;;;11.39;79.92
61488;BME280;47351;53.326;-6.298;2023-05-02T02:10:19;102062.98;;;11.38;79.86
61488;BME280;47351;53.326;-6.298;2023-05-02T02:13:33;102063.54;;;11.40;79.79
61488;BME280;47351;53.326;-6.298;2023-05-02T02:16:27;102067.89;;;11.39;79.55
61488;BME280;47351;53.326;-6.298;2023-05-02T02:19:19;102070.73;;;11.42;79.80
61488;BME280;47351;53.326;-6.298;2023-05-02T02:22:23;102072.80;;;11.41;79.55
61488;BME280;47351;53.326;-6.298;2023-05-02T02:25:18;102067.55;;;11.39;79.32
61488;BME280;47351;53.326;-6.298;2023-05-02T02:28:13;102067.73;;;11.35;79.02
61488;BME280;47351;53.326;-6.298;2023-05-02T02:31:07;102070.96;;;11.28;78.92
61488;BME280;47351;53.326;-6.298;2023-05-02T02:34:01;102079.36;;;11.24;79.01
61488;BME280;47351;53.326;-6.298;2023-05-02T02:37:02;102082.66;;;11.19;79.10
61488;BME280;47351;53.326;-6.298;2023-05-02T02:40:03;102085.75;;;11.14;79.12
61488;BME280;47351;53.326;-6.298;2023-05-02T02:43:07;102082.48;;;11.08;79.25
61488;BME280;47351;53.326;-6.298;2023-05-02T02:46:08;102087.98;;;11.04;79.23
61488;BME280;47351;53.326;-6.298;2023-05-02T02:49:14;102089.01;;;11.00;79.33
61488;BME280;47351;53.326;-6.298;2023-05-02T02:52:13;102087.45;;;10.98;79.56
61488;BME280;47351;53.326;-6.298;2023-05-02T02:55:08;102090.52;;;10.95;79.56
61488;BME280;47351;53.326;-6.298;2023-05-02T02:58:06;102090.30;;;10.96;79.78
61488;BME280;47351;53.326;-6.298;2023-05-02T03:01:14;102093.91;;;10.96;79.67
61488;BME280;47351;53.326;-6.298;2023-05-02T03:04:10;102095.13;;;10.94;79.82
61488;BME280;47351;53.326;-6.298;2023-05-02T03:07:09;102093.84;;;10.94;80.04
61488;BME280;47351;53.326;-6.298;2023-05-02T03:10:06;102091.50;;;10.98;80.27
61488;BME280;47351;53.326;-6.298;2023-05-02T03:13:00;102096.82;;;11.03;80.27
61488;BME280;47351;53.326;-6.298;2023-05-02T03:16:20;102092.65;;;11.06;80.18
61488;BME280;47351;53.326;-6.298;2023-05-02T03:19:22;102093.99;;;11.09;80.02
61488;BME280;47351;53.326;-6.298;2023-05-02T03:22:13;102091.52;;;11.09;79.68
61488;BME280;47351;53.326;-6.298;2023-05-02T03:25:04;102089.57;;;11.06;79.55
61488;BME280;47351;53.326;-6.298;2023-05-02T03:27:59;102095.91;;;11.03;79.40
61488;BME280;47351;53.326;-6.298;2023-05-02T03:30:56;102097.30;;;10.99;79.44
61488;BME280;47351;53.326;-6.298;2023-05-02T03:33:52;102097.97;;;10.96;79.44
61488;BME280;47351;53.326;-6.298;2023-05-02T03:36:45;102094.67;;;10.90;79.48
61488;BME280;47351;53.326;-6.298;2023-05-02T03:39:36;102081.62;;;10.86;79.51
61488;BME280;47351;53.326;-6.298;2023-05-02T03:42:30;102078.77;;;10.80;79.55
61488;BME280;47351;53.326;-6.298;2023-05-02T03:45:26;102079.77;;;10.72;79.59
61488;BME280;47351;53.326;-6.298;2023-05-02T03:48:21;102073.67;;;10.65;79.78
61488;BME280;47351;53.326;-6.298;2023-05-02T03:51:23;102068.95;;;10.60;80.10
61488;BME280;47351;53.326;-6.298;2023-05-02T03:54:19;102071.77;;;10.58;80.38
61488;BME280;47351;53.326;-6.298;2023-05-02T03:57:13;102077.17;;;10.57;80.47
61488;BME280;47351;53.326;-6.298;2023-05-02T04:00:08;102083.36;;;10.56;80.51
61488;BME280;47351;53.326;-6.298;2023-05-02T04:03:19;102085.89;;;10.56;80.72
61488;BME280;47351;53.326;-6.298;2023-05-02T04:06:11;102086.89;;;10.57;80.91
61488;BME280;47351;53.326;-6.298;2023-05-02T04:09:04;102083.57;;;10.58;81.02
61488;BME280;47351;53.326;-6.298;2023-05-02T04:12:15;102085.77;;;10.59;81.16
61488;BME280;47351;53.326;-6.298;2023-05-02T04:15:12;102084.13;;;10.60;81.24
61488;BME280;47351;53.326;-6.298;2023-05-02T04:18:03;102085.33;;;10.60;81.43
61488;BME280;47351;53.326;-6.298;2023-05-02T04:21:00;102085.27;;;10.63;81.58
61488;BME280;47351;53.326;-6.298;2023-05-02T04:23:54;102082.98;;;10.67;81.65
61488;BME280;47351;53.326;-6.298;2023-05-02T04:26:51;102082.56;;;10.70;81.44
61488;BME280;47351;53.326;-6.298;2023-05-02T04:29:48;102080.50;;;10.72;81.49
61488;BME280;47351;53.326;-6.298;2023-05-02T04:32:39;102082.35;;;10.73;81.40
61488;BME280;47351;53.326;-6.298;2023-05-02T04:35:34;102079.23;;;10.74;81.39
61488;BME280;47351;53.326;-6.298;2023-05-02T04:38:26;102078.23;;;10.73;81.33
61488;BME280;47351;53.326;-6.298;2023-05-02T04:41:20;102075.21;;;10.71;81.46
61488;BME280;47351;53.326;-6.298;2023-05-02T04:44:18;102073.84;;;10.70;81.55
61488;BME280;47351;53.326;-6.298;2023-05-02T04:47:12;102074.98;;;10.69;81.52
61488;BME280;47351;53.326;-6.298;2023-05-02T04:50:08;102075.84;;;10.67;81.42
61488;BME280;47351;53.326;-6.298;2023-05-02T04:53:02;102078.38;;;10.64;81.38
61488;BME280;47351;53.326;-6.298;2023-05-02T04:55:57;102075.63;;;10.63;81.55
61488;BME280;47351;53.326;-6.298;2023-05-02T04:58:55;102074.75;;;10.63;81.71
61488;BME280;47351;53.326;-6.298;2023-05-02T05:01:49;102077.80;;;10.63;81.62
61488;BME280;47351;53.326;-6.298;2023-05-02T05:04:43;102079.71;;;10.63;81.68
61488;BME280;47351;53.326;-6.298;2023-05-02T05:07:39;102077.44;;;10.63;81.74
61488;BME280;47351;53.326;-6.298;2023-05-02T05:10:38;102080.65;;;10.63;81.82
61488;BME280;47351;53.326;-6.298;2023-05-02T05:13:38;102083.41;;;10.62;81.72
61488;BME280;47351;53.326;-6.298;2023-05-02T05:16:35;102087.87;;;10.64;81.81
61488;BME280;47351;53.326;-6.298;2023-05-02T05:19:37;102089.33;;;10.66;81.82
61488;BME280;47351;53.326;-6.298;2023-05-02T05:22:30;102092.29;;;10.69;81.88
61488;BME280;47351;53.326;-6.298;2023-05-02T05:25:21;102097.86;;;10.73;81.81
61488;BME280;47351;53.326;-6.298;2023-05-02T05:28:14;102101.77;;;10.78;81.84
61488;BME280;47351;53.326;-6.298;2023-05-02T05:31:09;102100.95;;;10.83;81.91
61488;BME280;47351;53.326;-6.298;2023-05-02T05:34:09;102104.47;;;10.88;81.85
61488;BME280;47351;53.326;-6.298;2023-05-02T05:37:05;102105.50;;;10.93;81.68
61488;BME280;47351;53.326;-6.298;2023-05-02T05:40:02;102109.83;;;10.97;81.64
61488;BME280;47351;53.326;-6.298;2023-05-02T05:42:55;102108.05;;;11.01;81.46
61488;BME280;47351;53.326;-6.298;2023-05-02T05:45:58;102103.00;;;11.04;81.18
61488;BME280;47351;53.326;-6.298;2023-05-02T05:48:54;102103.05;;;11.05;81.15
61488;BME280;47351;53.326;-6.298;2023-05-02T05:51:48;102104.48;;;11.08;81.07
61488;BME280;47351;53.326;-6.298;2023-05-02T05:54:41;102099.95;;;11.11;80.98
61488;BME280;47351;53.326;-6.298;2023-05-02T05:57:32;102094.64;;;11.12;80.80
61488;BME280;47351;53.326;-6.298;2023-05-02T06:00:30;102096.98;;;11.14;80.73
61488;BME280;47351;53.326;-6.298;2023-05-02T06:03:23;102096.21;;;11.17;80.52
61488;BME280;47351;53.326;-6.298;2023-05-02T06:06:17;102097.67;;;11.21;80.34
61488;BME280;47351;53.326;-6.298;2023-05-02T06:09:13;102098.27;;;11.25;80.22
61488;BME280;47351;53.326;-6.298;2023-05-02T06:12:09;102097.46;;;11.28;80.15
61488;BME280;47351;53.326;-6.298;2023-05-02T06:15:00;102098.15;;;11.30;80.07
61488;BME280;47351;53.326;-6.298;2023-05-02T06:17:52;102098.99;;;11.33;80.04
61488;BME280;47351;53.326;-6.298;2023-05-02T06:20:46;102096.53;;;11.39;80.18
61488;BME280;47351;53.326;-6.298;2023-05-02T06:23:42;102096.30;;;11.43;80.05
61488;BME280;47351;53.326;-6.298;2023-05-02T06:26:54;102089.88;;;11.48;79.85
61488;BME280;47351;53.326;-6.298;2023-05-02T06:29:51;102093.31;;;11.55;79.99
61488;BME280;47351;53.326;-6.298;2023-05-02T06:32:42;102101.26;;;11.67;79.74
61488;BME280;47351;53.326;-6.298;2023-05-02T06:35:33;102102.59;;;11.75;79.57
61488;BME280;47351;53.326;-6.298;2023-05-02T06:38:29;102098.72;;;11.85;79.49
61488;BME280;47351;53.326;-6.298;2023-05-02T06:41:23;102100.14;;;11.93;79.44
61488;BME280;47351;53.326;-6.298;2023-05-02T06:44:16;102102.13;;;11.95;79.33
61488;BME280;47351;53.326;-6.298;2023-05-02T06:47:07;102097.95;;;11.92;79.09
61488;BME280;47351;53.326;-6.298;2023-05-02T06:49:58;102094.73;;;11.85;78.87
61488;BME280;47351;53.326;-6.298;2023-05-02T06:52:52;102098.16;;;11.82;79.00
61488;BME280;47351;53.326;-6.298;2023-05-02T06:55:43;102099.02;;;11.94;78.89
61488;BME280;47351;53.326;-6.298;2023-05-02T06:58:36;102093.18;;;12.09;78.65
61488;BME280;47351;53.326;-6.298;2023-05-02T07:01:27;102095.61;;;12.22;78.26
61488;BME280;47351;53.326;-6.298;2023-05-02T07:04:18;102103.47;;;12.35;78.21
61488;BME280;47351;53.326;-6.298;2023-05-02T07:07:10;102102.33;;;12.47;77.99
61488;BME280;47351;53.326;-6.298;2023-05-02T07:10:01;102100.46;;;12.48;77.42
61488;BME280;47351;53.326;-6.298;2023-05-02T07:12:52;102099.06;;;12.52;77.64
61488;BME280;47351;53.326;-6.298;2023-05-02T07:15:44;102097.08;;;12.63;77.35
61488;BME280;47351;53.326;-6.298;2023-05-02T07:18:34;102092.09;;;12.82;77.51
61488;BME280;47351;53.326;-6.298;2023-05-02T07:21:28;102089.94;;;13.06;77.27
61488;BME280;47351;53.326;-6.298;2023-05-02T07:24:20;102085.13;;;13.27;76.59
61488;BME280;47351;53.326;-6.298;2023-05-02T07:27:11;102088.82;;;13.43;76.09
61488;BME280;47351;53.326;-6.298;2023-05-02T07:30:03;102093.50;;;13.62;75.75
61488;BME280;47351;53.326;-6.298;2023-05-02T07:32:58;102092.88;;;13.78;75.03
61488;BME280;47351;53.326;-6.298;2023-05-02T07:35:53;102087.34;;;13.93;74.50
61488;BME280;47351;53.326;-6.298;2023-05-02T07:38:45;102089.61;;;14.16;74.20
61488;BME280;47351;53.326;-6.298;2023-05-02T07:41:36;102095.46;;;14.26;73.61
61488;BME280;47351;53.326;-6.298;2023-05-02T07:44:26;102095.98;;;14.32;73.45
61488;BME280;47351;53.326;-6.298;2023-05-02T07:47:17;102097.95;;;14.28;73.43
61488;BME280;47351;53.326;-6.298;2023-05-02T07:50:11;102100.02;;;14.27;73.26
61488;BME280;47351;53.326;-6.298;2023-05-02T07:53:02;102100.83;;;14.47;73.20
61488;BME280;47351;53.326;-6.298;2023-05-02T07:55:53;102100.58;;;14.82;73.06
61488;BME280;47351;53.326;-6.298;2023-05-02T07:58:46;102090.77;;;15.93;71.92
61488;BME280;47351;53.326;-6.298;2023-05-02T08:01:37;102092.91;;;16.37;70.05
61488;BME280;47351;53.326;-6.298;2023-05-02T08:04:27;102096.36;;;16.24;69.14
61488;BME280;47351;53.326;-6.298;2023-05-02T08:07:22;102103.70;;;16.03;68.60
61488;BME280;47351;53.326;-6.298;2023-05-02T08:10:12;102103.66;;;16.08;68.59
61488;BME280;47351;53.326;-6.298;2023-05-02T08:13:03;102103.46;;;16.43;68.37
61488;BME280;47351;53.326;-6.298;2023-05-02T08:15:54;102102.08;;;16.60;68.06
61488;BME280;47351;53.326;-6.298;2023-05-02T08:18:51;102098.94;;;17.41;67.00
61488;BME280;47351;53.326;-6.298;2023-05-02T08:21:44;102102.39;;;17.96;65.52
61488;BME280;47351;53.326;-6.298;2023-05-02T08:24:35;102109.31;;;17.62;65.00
61488;BME280;47351;53.326;-6.298;2023-05-02T08:27:26;102108.95;;;17.52;65.12
61488;BME280;47351;53.326;-6.298;2023-05-02T08:30:17;102113.96;;;18.09;64.20
61488;BME280;47351;53.326;-6.298;2023-05-02T08:33:08;102121.97;;;18.95;62.91
61488;BME280;47351;53.326;-6.298;2023-05-02T08:35:59;102116.22;;;20.68;59.65
61488;BME280;47351;53.326;-6.298;2023-05-02T08:38:49;102110.56;;;21.85;55.68
61488;BME280;47351;53.326;-6.298;2023-05-02T08:41:40;102112.33;;;21.99;55.92
61488;BME280;47351;53.326;-6.298;2023-05-02T08:44:31;102117.90;;;22.05;56.31
61488;BME280;47351;53.326;-6.298;2023-05-02T08:47:22;102125.73;;;21.97;55.67
61488;BME280;47351;53.326;-6.298;2023-05-02T08:50:13;102136.15;;;21.57;55.29
61488;BME280;47351;53.326;-6.298;2023-05-02T08:53:06;102138.08;;;21.00;55.90
61488;BME280;47351;53.326;-6.298;2023-05-02T08:55:59;102138.06;;;20.47;56.32
61488;BME280;47351;53.326;-6.298;2023-05-02T08:58:50;102132.98;;;20.14;56.60
61488;BME280;47351;53.326;-6.298;2023-05-02T09:01:41;102129.38;;;20.11;56.54
61488;BME280;47351;53.326;-6.298;2023-05-02T09:04:34;102122.59;;;20.69;55.50
61488;BME280;47351;53.326;-6.298;2023-05-02T09:07:30;102124.20;;;21.87;54.22
61488;BME280;47351;53.326;-6.298;2023-05-02T09:10:31;102125.18;;;23.34;52.25
61488;BME280;47351;53.326;-6.298;2023-05-02T09:13:34;102119.92;;;24.34;49.36
61488;BME280;47351;53.326;-6.298;2023-05-02T09:16:25;102124.34;;;24.83;48.50
61488;BME280;47351;53.326;-6.298;2023-05-02T09:19:23;102129.48;;;24.35;48.95
61488;BME280;47351;53.326;-6.298;2023-05-02T09:22:22;102128.84;;;23.91;48.36
61488;BME280;47351;53.326;-6.298;2023-05-02T09:25:13;102129.00;;;24.00;48.19
61488;BME280;47351;53.326;-6.298;2023-05-02T09:28:04;102117.91;;;24.36;46.96
61488;BME280;47351;53.326;-6.298;2023-05-02T09:30:59;102111.85;;;23.71;47.64
61488;BME280;47351;53.326;-6.298;2023-05-02T09:33:55;102107.94;;;23.09;48.80
61488;BME280;47351;53.326;-6.298;2023-05-02T09:36:47;102104.96;;;22.54;48.63
61488;BME280;47351;53.326;-6.298;2023-05-02T09:39:39;102112.86;;;21.85;48.97
61488;BME280;47351;53.326;-6.298;2023-05-02T09:42:31;102106.80;;;21.29;50.15
61488;BME280;47351;53.326;-6.298;2023-05-02T09:45:22;102102.31;;;21.33;50.94
61488;BME280;47351;53.326;-6.298;2023-05-02T09:48:13;102095.78;;;22.40;49.65
61488;BME280;47351;53.326;-6.298;2023-05-02T09:51:04;102091.19;;;24.58;46.90
61488;BME280;47351;53.326;-6.298;2023-05-02T09:54:06;102086.25;;;26.09;45.49
61488;BME280;47351;53.326;-6.298;2023-05-02T09:56:57;102093.63;;;26.27;44.38
61488;BME280;47351;53.326;-6.298;2023-05-02T09:59:54;102098.05;;;26.94;43.56
61488;BME280;47351;53.326;-6.298;2023-05-02T10:02:45;102101.54;;;27.87;41.56
61488;BME280;47351;53.326;-6.298;2023-05-02T10:05:38;102096.48;;;28.18;40.31
61488;BME280;47351;53.326;-6.298;2023-05-02T10:08:29;102097.46;;;28.26;40.29
61488;BME280;47351;53.326;-6.298;2023-05-02T10:11:21;102096.05;;;28.74;39.54
61488;BME280;47351;53.326;-6.298;2023-05-02T10:14:13;102103.11;;;29.62;38.93
61488;BME280;47351;53.326;-6.298;2023-05-02T10:17:08;102105.83;;;30.42;37.62
61488;BME280;47351;53.326;-6.298;2023-05-02T10:20:02;102103.48;;;30.50;36.54
61488;BME280;47351;53.326;-6.298;2023-05-02T10:22:53;102101.33;;;30.34;35.45
61488;BME280;47351;53.326;-6.298;2023-05-02T10:25:44;102107.30;;;30.26;35.74
61488;BME280;47351;53.326;-6.298;2023-05-02T10:28:35;102108.96;;;29.90;36.38
61488;BME280;47351;53.326;-6.298;2023-05-02T10:31:26;102104.95;;;28.94;36.67
61488;BME280;47351;53.326;-6.298;2023-05-02T10:34:17;102113.38;;;28.33;37.11
61488;BME280;47351;53.326;-6.298;2023-05-02T10:37:09;102108.52;;;28.64;36.57
61488;BME280;47351;53.326;-6.298;2023-05-02T10:40:00;102116.02;;;29.01;36.75
61488;BME280;47351;53.326;-6.298;2023-05-02T10:42:51;102119.92;;;28.78;37.22
61488;BME280;47351;53.326;-6.298;2023-05-02T10:45:42;102125.51;;;28.46;37.35
61488;BME280;47351;53.326;-6.298;2023-05-02T10:48:33;102132.97;;;28.30;37.10
61488;BME280;47351;53.326;-6.298;2023-05-02T10:51:27;102134.37;;;27.22;38.20
61488;BME280;47351;53.326;-6.298;2023-05-02T10:54:20;102136.59;;;26.03;38.69
61488;BME280;47351;53.326;-6.298;2023-05-02T10:57:10;102138.64;;;24.94;39.89
61488;BME280;47351;53.326;-6.298;2023-05-02T11:00:04;102138.27;;;23.95;41.26
61488;BME280;47351;53.326;-6.298;2023-05-02T11:03:10;102147.41;;;23.04;42.65
61488;BME280;47351;53.326;-6.298;2023-05-02T11:06:07;102150.90;;;22.24;43.89
61488;BME280;47351;53.326;-6.298;2023-05-02T11:12:07;102157.60;;;20.83;46.10
61488;BME280;47351;53.326;-6.298;2023-05-02T11:14:57;102158.63;;;20.29;47.46
61488;BME280;47351;53.326;-6.298;2023-05-02T11:18:01;102166.06;;;19.83;48.60
61488;BME280;47351;53.326;-6.298;2023-05-02T11:20:54;102171.87;;;19.34;49.75
61488;BME280;47351;53.326;-6.298;2023-05-02T11:30:32;102155.98;;;18.39;52.48
61488;BME280;47351;53.326;-6.298;2023-05-02T11:33:26;102151.10;;;18.23;53.33
61488;BME280;47351;53.326;-6.298;2023-05-02T11:36:27;102151.75;;;18.36;53.80
61488;BME280;47351;53.326;-6.298;2023-05-02T11:39:19;102145.05;;;19.11;53.08
61488;BME280;47351;53.326;-6.298;2023-05-02T11:42:09;102140.74;;;19.43;52.68
61488;BME280;47351;53.326;-6.298;2023-05-02T11:45:00;102142.27;;;19.54;52.62
61488;BME280;47351;53.326;-6.298;2023-05-02T11:47:52;102142.50;;;19.64;52.42
61488;BME280;47351;53.326;-6.298;2023-05-02T11:50:44;102142.95;;;19.96;52.15
61488;BME280;47351;53.326;-6.298;2023-05-02T11:53:40;102140.18;;;20.39;52.00
61488;BME280;47351;53.326;-6.298;2023-05-02T11:56:31;102135.35;;;21.04;51.34
61488;BME280;47351;53.326;-6.298;2023-05-02T11:59:23;102132.52;;;21.11;50.98
61488;BME280;47351;53.326;-6.298;2023-05-02T12:02:14;102129.45;;;20.88;51.47
61488;BME280;47351;53.326;-6.298;2023-05-02T12:05:05;102136.20;;;20.68;52.02
61488;BME280;47351;53.326;-6.298;2023-05-02T12:07:56;102141.36;;;20.42;52.07
61488;BME280;47351;53.326;-6.298;2023-05-02T12:10:49;102138.03;;;20.25;52.54
61488;BME280;47351;53.326;-6.298;2023-05-02T12:13:44;102136.02;;;20.12;52.36
61488;BME280;47351;53.326;-6.298;2023-05-02T12:16:36;102132.55;;;20.20;52.37
61488;BME280;47351;53.326;-6.298;2023-05-02T12:19:27;102123.88;;;21.47;50.64
61488;BME280;47351;53.326;-6.298;2023-05-02T12:22:18;102113.46;;;23.94;47.36
61488;BME280;47351;53.326;-6.298;2023-05-02T12:25:09;102107.34;;;25.88;44.68
61488;BME280;47351;53.326;-6.298;2023-05-02T12:28:00;102104.70;;;27.40;42.83
61488;BME280;47351;53.326;-6.298;2023-05-02T12:30:52;102095.71;;;29.31;40.34
61488;BME280;47351;53.326;-6.298;2023-05-02T12:33:42;102091.05;;;30.66;37.47
61488;BME280;47351;53.326;-6.298;2023-05-02T12:36:33;102093.98;;;31.97;35.34
61488;BME280;47351;53.326;-6.298;2023-05-02T12:39:34;102088.13;;;31.39;34.16
61488;BME280;47351;53.326;-6.298;2023-05-02T12:42:25;102086.79;;;31.79;33.61
61488;BME280;47351;53.326;-6.298;2023-05-02T12:45:19;102084.66;;;31.94;32.98
61488;BME280;47351;53.326;-6.298;2023-05-02T12:48:19;102077.99;;;32.90;30.18
61488;BME280;47351;53.326;-6.298;2023-05-02T12:51:20;102076.21;;;33.37;28.70
61488;BME280;47351;53.326;-6.298;2023-05-02T12:54:20;102080.29;;;32.20;28.89
61488;BME280;47351;53.326;-6.298;2023-05-02T12:57:15;102074.21;;;31.42;29.20
61488;BME280;47351;53.326;-6.298;2023-05-02T13:00:12;102067.95;;;31.06;29.51
61488;BME280;47351;53.326;-6.298;2023-05-02T13:03:05;102067.92;;;31.57;28.76
61488;BME280;47351;53.326;-6.298;2023-05-02T13:05:56;102069.60;;;31.32;28.88
61488;BME280;47351;53.326;-6.298;2023-05-02T13:08:47;102076.52;;;29.81;29.24
61488;BME280;47351;53.326;-6.298;2023-05-02T13:11:37;102089.52;;;28.13;30.70
61488;BME280;47351;53.326;-6.298;2023-05-02T13:14:28;102093.00;;;27.16;30.95
61488;BME280;47351;53.326;-6.298;2023-05-02T13:17:19;102091.55;;;26.29;31.88
61488;BME280;47351;53.326;-6.298;2023-05-02T13:20:10;102090.70;;;25.58;32.43
61488;BME280;47351;53.326;-6.298;2023-05-02T13:23:01;102093.07;;;24.92;33.46
61488;BME280;47351;53.326;-6.298;2023-05-02T13:25:53;102105.73;;;24.27;34.40
61488;BME280;47351;53.326;-6.298;2023-05-02T13:28:43;102115.54;;;23.75;34.72
61488;BME280;47351;53.326;-6.298;2023-05-02T13:31:34;102114.38;;;23.46;35.33
61488;BME280;47351;53.326;-6.298;2023-05-02T13:34:25;102118.55;;;23.41;35.65
61488;BME280;47351;53.326;-6.298;2023-05-02T13:40:22;102106.52;;;23.45;36.40
61488;BME280;47351;53.326;-6.298;2023-05-02T13:43:13;102105.60;;;23.55;36.59
61488;BME280;47351;53.326;-6.298;2023-05-02T13:46:04;102104.52;;;23.65;36.60
61488;BME280;47351;53.326;-6.298;2023-05-02T13:48:54;102098.88;;;23.68;36.61
61488;BME280;47351;53.326;-6.298;2023-05-02T13:51:45;102097.73;;;23.55;36.63
61488;BME280;47351;53.326;-6.298;2023-05-02T13:54:36;102091.88;;;23.36;37.03
61488;BME280;47351;53.326;-6.298;2023-05-02T13:57:27;102090.40;;;23.22;37.23
61488;BME280;47351;53.326;-6.298;2023-05-02T14:00:18;102083.63;;;23.13;37.69
61488;BME280;47351;53.326;-6.298;2023-05-02T14:03:09;102077.47;;;23.00;37.55
61488;BME280;47351;53.326;-6.298;2023-05-02T14:06:01;102079.64;;;22.95;37.95
61488;BME280;47351;53.326;-6.298;2023-05-02T14:08:52;102080.14;;;23.08;37.69
61488;BME280;47351;53.326;-6.298;2023-05-02T14:11:43;102083.69;;;23.27;37.63
61488;BME280;47351;53.326;-6.298;2023-05-02T14:14:35;102085.41;;;23.49;37.49
61488;BME280;47351;53.326;-6.298;2023-05-02T14:17:26;102077.84;;;23.76;37.38
61488;BME280;47351;53.326;-6.298;2023-05-02T14:20:17;102075.21;;;23.94;37.30
61488;BME280;47351;53.326;-6.298;2023-05-02T14:23:08;102069.06;;;24.25;36.88
61488;BME280;47351;53.326;-6.298;2023-05-02T14:25:58;102060.25;;;24.62;36.78
61488;BME280;47351;53.326;-6.298;2023-05-02T14:28:49;102052.17;;;24.95;36.02
61488;BME280;47351;53.326;-6.298;2023-05-02T14:31:40;102053.79;;;25.19;35.64
61488;BME280;47351;53.326;-6.298;2023-05-02T14:34:31;102048.20;;;25.39;35.15
61488;BME280;47351;53.326;-6.298;2023-05-02T14:37:22;102054.39;;;25.39;34.98
61488;BME280;47351;53.326;-6.298;2023-05-02T14:40:13;102056.70;;;25.50;35.31
61488;BME280;47351;53.326;-6.298;2023-05-02T14:43:04;102055.13;;;25.50;35.39
61488;BME280;47351;53.326;-6.298;2023-05-02T14:45:55;102048.96;;;25.37;34.95
61488;BME280;47351;53.326;-6.298;2023-05-02T14:48:46;102053.15;;;25.12;34.78
61488;BME280;47351;53.326;-6.298;2023-05-02T14:51:37;102051.71;;;24.99;34.78
61488;BME280;47351;53.326;-6.298;2023-05-02T14:54:28;102058.13;;;25.00;35.00
61488;BME280;47351;53.326;-6.298;2023-05-02T14:57:19;102063.27;;;24.80;35.18
61488;BME280;47351;53.326;-6.298;2023-05-02T15:00:10;102061.64;;;24.41;35.13
61488;BME280;47351;53.326;-6.298;2023-05-02T15:03:01;102058.38;;;24.06;35.44
61488;BME280;47351;53.326;-6.298;2023-05-02T15:05:55;102062.19;;;23.78;36.05
61488;BME280;47351;53.326;-6.298;2023-05-02T15:08:47;102066.79;;;23.46;36.40
61488;BME280;47351;53.326;-6.298;2023-05-02T15:11:38;102065.17;;;23.27;36.92